Atlantis — PCDT — position and weather

sailwx.info

Track history (hours):
 
Tides and Currents Weather Stations Pressure Air Temp Water Temp Dewpoint Dewpoint Depression Visibility Wind Speed Wind Dir Waves Ship Positions

Atlantis (Netherlands)

Ship's website: http://www.tallship-company.com/artemis/gb_atlantis.htm

Last reported at 2014-Jul-27 09:29 UTC. Time now 2014-Jul-28 20:31 UTC.
Position N 54°46' E 010°12'.

Length 40 m; draft 4.5 m.

Type: Sailing vessel. MMSI: 246253000.

Date/timePositionNaut miles runAvg speedWind from/ knotsBaromVisibWave heightAir tempDewpointWater temp
2014-Jul-27 09:29N 54°46' E 010°12'9 7.5
2014-Jul-27 08:17N 54°55' E 010°11'4 4.7
2014-Jul-27 07:27N 54°59' E 010°14'  
2014-Jul-24 06:22N 55°03' E 010°10'15 0.3
2014-Jul-22 06:30N 54°49' E 010°13'9 7.7
2014-Jul-22 05:22N 54°40' E 010°14'6 7.8
2014-Jul-22 04:33N 54°33' E 010°14'13 0.3
2014-Jul-20 10:19N 54°45' E 010°04'5 6.9
2014-Jul-20 09:33N 54°49' E 009°58'7 6.7
2014-Jul-20 08:33N 54°53' E 009°49'2 1.7
2014-Jul-20 07:25N 54°55' E 009°47'0 0.0
2014-Jul-20 06:25N 54°55' E 009°47'0 0.0
2014-Jul-20 05:25N 54°55' E 009°47'0 0.0
2014-Jul-20 04:28N 54°55' E 009°47'0 0.0
2014-Jul-20 03:28N 54°55' E 009°47'0 0.0
2014-Jul-20 02:31N 54°55' E 009°47'0 0.0
2014-Jul-20 01:31N 54°55' E 009°47'0 0.0
2014-Jul-20 00:31N 54°55' E 009°47'0 0.0
2014-Jul-19 23:31N 54°55' E 009°47'0 0.0
2014-Jul-19 22:31N 54°55' E 009°47'0 0.0
2014-Jul-19 21:31N 54°55' E 009°47'0 0.0
2014-Jul-19 20:31N 54°55' E 009°47'0 0.0
2014-Jul-19 19:22N 54°55' E 009°47'0 0.0
2014-Jul-19 18:25N 54°55' E 009°47'0 0.0
2014-Jul-19 17:25N 54°55' E 009°47'0 0.0
2014-Jul-19 16:25N 54°55' E 009°47'0 0.0
2014-Jul-19 15:33N 54°55' E 009°47'1 1.2
2014-Jul-19 14:33N 54°53' E 009°47'5 4.6
2014-Jul-19 13:33N 54°51' E 009°54'5 5.0
2014-Jul-19 12:33N 54°47' E 010°00'6 6.0
2014-Jul-19 11:33N 54°43' E 010°06'7 6.8
2014-Jul-19 10:33N 54°36' E 010°10'7 6.6
2014-Jul-19 09:27N 54°29' E 010°14'  
Track history (hours):
 
Tides and Currents Weather Stations Pressure Air Temp Water Temp Dewpoint Dewpoint Depression Visibility Wind Speed Wind Dir Waves Ship Positions

Atlantis (Netherlands)

Ship's website: http://www.tallship-company.com/artemis/gb_atlantis.htm

Last reported at 2014-Jul-27 09:29 UTC. Time now 2014-Jul-28 20:31 UTC.
Position N 54°46' E 010°12'.

Length 40 m; draft 4.5 m.

Type: Sailing vessel. MMSI: 246253000.

Date/timePositionNaut miles runAvg speedWind from/ knotsBaromVisibWave heightAir tempDewpointWater temp
2014-Jul-27 09:29N 54°46' E 010°12'9 7.5
2014-Jul-27 08:17N 54°55' E 010°11'4 4.7
2014-Jul-27 07:27N 54°59' E 010°14'  
2014-Jul-24 06:22N 55°03' E 010°10'15 0.3
2014-Jul-22 06:30N 54°49' E 010°13'9 7.7
2014-Jul-22 05:22N 54°40' E 010°14'6 7.8
2014-Jul-22 04:33N 54°33' E 010°14'13 0.3
2014-Jul-20 10:19N 54°45' E 010°04'5 6.9
2014-Jul-20 09:33N 54°49' E 009°58'7 6.7
2014-Jul-20 08:33N 54°53' E 009°49'2 1.7
2014-Jul-20 07:25N 54°55' E 009°47'0 0.0
2014-Jul-20 06:25N 54°55' E 009°47'0 0.0
2014-Jul-20 05:25N 54°55' E 009°47'0 0.0
2014-Jul-20 04:28N 54°55' E 009°47'0 0.0
2014-Jul-20 03:28N 54°55' E 009°47'0 0.0
2014-Jul-20 02:31N 54°55' E 009°47'0 0.0
2014-Jul-20 01:31N 54°55' E 009°47'0 0.0
2014-Jul-20 00:31N 54°55' E 009°47'0 0.0
2014-Jul-19 23:31N 54°55' E 009°47'0 0.0
2014-Jul-19 22:31N 54°55' E 009°47'0 0.0
2014-Jul-19 21:31N 54°55' E 009°47'0 0.0
2014-Jul-19 20:31N 54°55' E 009°47'0 0.0
2014-Jul-19 19:22N 54°55' E 009°47'0 0.0
2014-Jul-19 18:25N 54°55' E 009°47'0 0.0
2014-Jul-19 17:25N 54°55' E 009°47'0 0.0
2014-Jul-19 16:25N 54°55' E 009°47'0 0.0
2014-Jul-19 15:33N 54°55' E 009°47'1 1.2
2014-Jul-19 14:33N 54°53' E 009°47'5 4.6
2014-Jul-19 13:33N 54°51' E 009°54'5 5.0
2014-Jul-19 12:33N 54°47' E 010°00'6 6.0
2014-Jul-19 11:33N 54°43' E 010°06'7 6.8
2014-Jul-19 10:33N 54°36' E 010°10'7 6.6
2014-Jul-19 09:27N 54°29' E 010°14'  

Dump ship's entire track history